Pagrindinis puslapis
METAR-TAF:

METAR-TAF

Oro uostai :

Korientesas, Argentina

platuma: 27-27S, ilguma: 058-46W, Aukštis: 62 m

Dabartinis oras

Ataskaita buvo paskelbta 53 minutes, ne 06:00 UTC
Vėjas 2 kt iš Pietų/Pietryčių
Temperatūra 17°C
Drėgmė 88%
Slėgis 1014 hPa
Matomumas 10 km arba daugiau
nėra debesų žemiau 1500 m ir nėra kamuolinių lietaus debesų

METAR: SARC 280600Z 16002KT CAVOK 17/15 Q1014

Laikas: 03:53 (06:53 UTC)


TAF: trūkstamas

Orai ataskaitas ir orų prognozės (METAR, TAF).

turimą stotys yra geltonos ir raudonos taškus žemėlapyje.

Perkelti pele per norėdami pamatyti stoties vardą.

Tada spustelėkite, norėdami matyti oro stebėjimo ir prognozės.

Norėdami pakeisti žemėlapį: spustelėkite ant žalios mygtukų su juodo kryžiaus žemyn,; žalią mygtuką su brūkšneliu, jei norite nutolinti; arba žalių rodyklių gretimoms žemėlapius.


METAR-TAF: